sensor_id;sensor_type;location;lat;lon;timestamp;P1;durP1;ratioP1;P2;durP2;ratioP2
69305;SDS011;56427;51.580;4.656;2023-08-06T00:00:18;9.63;;;4.80;;
69305;SDS011;56427;51.580;4.656;2023-08-06T00:02:44;8.33;;;4.43;;
69305;SDS011;56427;51.580;4.656;2023-08-06T00:05:09;7.90;;;4.40;;
69305;SDS011;56427;51.580;4.656;2023-08-06T00:07:36;6.80;;;4.57;;
69305;SDS011;56427;51.580;4.656;2023-08-06T00:10:01;8.00;;;4.07;;
69305;SDS011;56427;51.580;4.656;2023-08-06T00:12:27;9.80;;;4.70;;
69305;SDS011;56427;51.580;4.656;2023-08-06T00:14:54;12.97;;;4.57;;
69305;SDS011;56427;51.580;4.656;2023-08-06T00:17:19;8.23;;;4.47;;
69305;SDS011;56427;51.580;4.656;2023-08-06T00:19:45;11.33;;;4.70;;
69305;SDS011;56427;51.580;4.656;2023-08-06T00:22:10;9.48;;;4.82;;
69305;SDS011;56427;51.580;4.656;2023-08-06T00:24:35;9.73;;;4.50;;
69305;SDS011;56427;51.580;4.656;2023-08-06T00:27:01;7.83;;;4.47;;
69305;SDS011;56427;51.580;4.656;2023-08-06T00:29:27;7.95;;;4.72;;
69305;SDS011;56427;51.580;4.656;2023-08-06T00:31:53;5.97;;;4.00;;
69305;SDS011;56427;51.580;4.656;2023-08-06T00:34:18;9.13;;;4.53;;
69305;SDS011;56427;51.580;4.656;2023-08-06T00:36:45;6.55;;;4.72;;
69305;SDS011;56427;51.580;4.656;2023-08-06T00:39:10;7.83;;;4.67;;
69305;SDS011;56427;51.580;4.656;2023-08-06T00:41:36;7.60;;;5.00;;
69305;SDS011;56427;51.580;4.656;2023-08-06T00:44:01;12.00;;;5.63;;
69305;SDS011;56427;51.580;4.656;2023-08-06T00:46:27;7.27;;;4.73;;
69305;SDS011;56427;51.580;4.656;2023-08-06T00:48:52;9.43;;;5.07;;
69305;SDS011;56427;51.580;4.656;2023-08-06T00:51:18;8.30;;;5.20;;
69305;SDS011;56427;51.580;4.656;2023-08-06T00:53:44;7.45;;;5.20;;
69305;SDS011;56427;51.580;4.656;2023-08-06T00:56:10;8.50;;;5.40;;
69305;SDS011;56427;51.580;4.656;2023-08-06T00:58:37;7.40;;;4.72;;
69305;SDS011;56427;51.580;4.656;2023-08-06T01:01:04;7.43;;;5.00;;
69305;SDS011;56427;51.580;4.656;2023-08-06T01:03:29;8.93;;;5.38;;
69305;SDS011;56427;51.580;4.656;2023-08-06T01:05:55;7.37;;;4.90;;
69305;SDS011;56427;51.580;4.656;2023-08-06T01:08:28;7.40;;;4.57;;
69305;SDS011;56427;51.580;4.656;2023-08-06T01:14:10;9.40;;;5.20;;
69305;SDS011;56427;51.580;4.656;2023-08-06T01:16:38;10.15;;;5.43;;
69305;SDS011;56427;51.580;4.656;2023-08-06T01:19:05;9.45;;;5.20;;
69305;SDS011;56427;51.580;4.656;2023-08-06T01:21:42;7.13;;;4.80;;
69305;SDS011;56427;51.580;4.656;2023-08-06T01:24:08;8.15;;;4.55;;
69305;SDS011;56427;51.580;4.656;2023-08-06T01:26:58;7.55;;;4.72;;
69305;SDS011;56427;51.580;4.656;2023-08-06T01:32:02;6.87;;;4.27;;
69305;SDS011;56427;51.580;4.656;2023-08-06T01:34:30;9.75;;;5.25;;
69305;SDS011;56427;51.580;4.656;2023-08-06T01:36:57;7.57;;;4.80;;
69305;SDS011;56427;51.580;4.656;2023-08-06T01:39:24;6.35;;;4.35;;
69305;SDS011;56427;51.580;4.656;2023-08-06T01:41:50;8.03;;;5.10;;
69305;SDS011;56427;51.580;4.656;2023-08-06T01:44:16;9.68;;;4.90;;
69305;SDS011;56427;51.580;4.656;2023-08-06T01:46:41;7.67;;;4.63;;
69305;SDS011;56427;51.580;4.656;2023-08-06T01:49:07;6.83;;;4.67;;
69305;SDS011;56427;51.580;4.656;2023-08-06T01:51:32;6.30;;;4.67;;
69305;SDS011;56427;51.580;4.656;2023-08-06T01:53:58;7.28;;;4.80;;
69305;SDS011;56427;51.580;4.656;2023-08-06T01:56:24;9.43;;;4.60;;
69305;SDS011;56427;51.580;4.656;2023-08-06T01:58:49;8.20;;;5.10;;
69305;SDS011;56427;51.580;4.656;2023-08-06T02:01:15;8.83;;;5.30;;
69305;SDS011;56427;51.580;4.656;2023-08-06T02:03:40;15.18;;;5.88;;
69305;SDS011;56427;51.580;4.656;2023-08-06T02:06:05;8.57;;;5.87;;
69305;SDS011;56427;51.580;4.656;2023-08-06T02:08:32;7.25;;;4.90;;
69305;SDS011;56427;51.580;4.656;2023-08-06T02:10:59;8.77;;;5.40;;
69305;SDS011;56427;51.580;4.656;2023-08-06T02:13:24;10.23;;;5.45;;
69305;SDS011;56427;51.580;4.656;2023-08-06T02:15:50;10.50;;;6.83;;
69305;SDS011;56427;51.580;4.656;2023-08-06T02:18:15;10.47;;;5.90;;
69305;SDS011;56427;51.580;4.656;2023-08-06T02:20:42;11.48;;;5.68;;
69305;SDS011;56427;51.580;4.656;2023-08-06T02:23:08;9.50;;;5.78;;
69305;SDS011;56427;51.580;4.656;2023-08-06T02:25:35;8.70;;;5.60;;
69305;SDS011;56427;51.580;4.656;2023-08-06T02:28:01;9.65;;;6.50;;
69305;SDS011;56427;51.580;4.656;2023-08-06T02:30:27;9.63;;;5.97;;
69305;SDS011;56427;51.580;4.656;2023-08-06T02:32:54;13.52;;;5.70;;
69305;SDS011;56427;51.580;4.656;2023-08-06T02:35:19;10.77;;;7.20;;
69305;SDS011;56427;51.580;4.656;2023-08-06T02:37:45;10.95;;;7.05;;
69305;SDS011;56427;51.580;4.656;2023-08-06T02:40:10;9.57;;;6.50;;
69305;SDS011;56427;51.580;4.656;2023-08-06T02:42:36;9.37;;;6.37;;
69305;SDS011;56427;51.580;4.656;2023-08-06T02:45:01;9.35;;;6.70;;
69305;SDS011;56427;51.580;4.656;2023-08-06T02:47:28;10.95;;;6.70;;
69305;SDS011;56427;51.580;4.656;2023-08-06T02:49:54;10.10;;;6.45;;
69305;SDS011;56427;51.580;4.656;2023-08-06T02:52:20;11.53;;;6.83;;
69305;SDS011;56427;51.580;4.656;2023-08-06T02:54:46;9.77;;;6.30;;
69305;SDS011;56427;51.580;4.656;2023-08-06T02:57:11;10.50;;;6.20;;
69305;SDS011;56427;51.580;4.656;2023-08-06T02:59:37;10.77;;;6.67;;
69305;SDS011;56427;51.580;4.656;2023-08-06T03:02:02;9.03;;;6.63;;
69305;SDS011;56427;51.580;4.656;2023-08-06T03:04:28;9.63;;;6.17;;
69305;SDS011;56427;51.580;4.656;2023-08-06T03:06:53;11.33;;;6.20;;
69305;SDS011;56427;51.580;4.656;2023-08-06T03:09:18;9.07;;;6.50;;
69305;SDS011;56427;51.580;4.656;2023-08-06T03:11:44;11.02;;;6.53;;
69305;SDS011;56427;51.580;4.656;2023-08-06T03:14:10;12.30;;;6.40;;
69305;SDS011;56427;51.580;4.656;2023-08-06T03:16:35;15.30;;;7.43;;
69305;SDS011;56427;51.580;4.656;2023-08-06T03:19:01;11.48;;;7.05;;
69305;SDS011;56427;51.580;4.656;2023-08-06T03:21:27;14.93;;;8.75;;
69305;SDS011;56427;51.580;4.656;2023-08-06T03:23:54;13.80;;;7.37;;
69305;SDS011;56427;51.580;4.656;2023-08-06T03:26:19;12.07;;;7.40;;
69305;SDS011;56427;51.580;4.656;2023-08-06T03:28:45;15.63;;;8.50;;
69305;SDS011;56427;51.580;4.656;2023-08-06T03:31:13;17.52;;;9.40;;
69305;SDS011;56427;51.580;4.656;2023-08-06T03:33:38;16.52;;;9.18;;
69305;SDS011;56427;51.580;4.656;2023-08-06T03:36:03;13.17;;;8.33;;
69305;SDS011;56427;51.580;4.656;2023-08-06T03:38:29;15.47;;;8.67;;
69305;SDS011;56427;51.580;4.656;2023-08-06T03:40:54;16.92;;;8.57;;
69305;SDS011;56427;51.580;4.656;2023-08-06T03:43:20;14.47;;;8.40;;
69305;SDS011;56427;51.580;4.656;2023-08-06T03:45:45;17.63;;;8.50;;
69305;SDS011;56427;51.580;4.656;2023-08-06T03:48:11;17.87;;;9.23;;
69305;SDS011;56427;51.580;4.656;2023-08-06T03:50:36;14.00;;;8.20;;
69305;SDS011;56427;51.580;4.656;2023-08-06T03:53:03;16.00;;;8.83;;
69305;SDS011;56427;51.580;4.656;2023-08-06T03:55:28;18.73;;;9.07;;
69305;SDS011;56427;51.580;4.656;2023-08-06T03:57:55;17.27;;;8.83;;
69305;SDS011;56427;51.580;4.656;2023-08-06T04:00:20;15.13;;;9.18;;
69305;SDS011;56427;51.580;4.656;2023-08-06T04:02:46;16.13;;;9.10;;
69305;SDS011;56427;51.580;4.656;2023-08-06T04:05:12;18.33;;;9.55;;
69305;SDS011;56427;51.580;4.656;2023-08-06T04:07:37;23.30;;;10.57;;
69305;SDS011;56427;51.580;4.656;2023-08-06T04:10:03;18.23;;;9.50;;
69305;SDS011;56427;51.580;4.656;2023-08-06T04:12:29;23.25;;;10.13;;
69305;SDS011;56427;51.580;4.656;2023-08-06T04:14:57;24.10;;;10.30;;
69305;SDS011;56427;51.580;4.656;2023-08-06T04:17:23;22.40;;;10.33;;
69305;SDS011;56427;51.580;4.656;2023-08-06T04:19:50;18.90;;;10.27;;
69305;SDS011;56427;51.580;4.656;2023-08-06T04:22:20;24.60;;;11.25;;
69305;SDS011;56427;51.580;4.656;2023-08-06T04:24:47;13.80;;;8.88;;
69305;SDS011;56427;51.580;4.656;2023-08-06T04:27:13;20.83;;;9.77;;
69305;SDS011;56427;51.580;4.656;2023-08-06T04:29:40;14.47;;;5.43;;
69305;SDS011;56427;51.580;4.656;2023-08-06T04:32:07;5.97;;;3.20;;
69305;SDS011;56427;51.580;4.656;2023-08-06T04:34:35;5.35;;;2.53;;
69305;SDS011;56427;51.580;4.656;2023-08-06T04:37:01;4.78;;;2.35;;
69305;SDS011;56427;51.580;4.656;2023-08-06T04:39:27;6.47;;;2.20;;
69305;SDS011;56427;51.580;4.656;2023-08-06T04:41:52;4.80;;;2.00;;
69305;SDS011;56427;51.580;4.656;2023-08-06T04:44:18;4.37;;;2.70;;
69305;SDS011;56427;51.580;4.656;2023-08-06T04:46:43;4.15;;;2.83;;
69305;SDS011;56427;51.580;4.656;2023-08-06T04:49:09;5.37;;;3.33;;
69305;SDS011;56427;51.580;4.656;2023-08-06T04:51:34;6.80;;;3.50;;
69305;SDS011;56427;51.580;4.656;2023-08-06T04:54:00;4.57;;;3.30;;
69305;SDS011;56427;51.580;4.656;2023-08-06T04:56:27;5.43;;;3.25;;
69305;SDS011;56427;51.580;4.656;2023-08-06T04:58:52;6.80;;;3.30;;
69305;SDS011;56427;51.580;4.656;2023-08-06T05:01:18;8.97;;;4.30;;
69305;SDS011;56427;51.580;4.656;2023-08-06T05:03:43;9.25;;;4.60;;
69305;SDS011;56427;51.580;4.656;2023-08-06T05:06:09;8.23;;;4.33;;
69305;SDS011;56427;51.580;4.656;2023-08-06T05:08:35;9.20;;;4.47;;
69305;SDS011;56427;51.580;4.656;2023-08-06T05:11:01;8.17;;;5.03;;
69305;SDS011;56427;51.580;4.656;2023-08-06T05:13:26;8.50;;;4.50;;
69305;SDS011;56427;51.580;4.656;2023-08-06T05:15:55;10.18;;;5.00;;
69305;SDS011;56427;51.580;4.656;2023-08-06T05:18:22;10.60;;;4.53;;
69305;SDS011;56427;51.580;4.656;2023-08-06T05:20:47;9.83;;;5.23;;
69305;SDS011;56427;51.580;4.656;2023-08-06T05:23:13;11.43;;;5.30;;
69305;SDS011;56427;51.580;4.656;2023-08-06T05:25:38;8.52;;;4.50;;
69305;SDS011;56427;51.580;4.656;2023-08-06T05:28:05;8.90;;;5.10;;
69305;SDS011;56427;51.580;4.656;2023-08-06T05:30:32;11.68;;;5.30;;
69305;SDS011;56427;51.580;4.656;2023-08-06T05:32:57;9.10;;;4.63;;
69305;SDS011;56427;51.580;4.656;2023-08-06T05:35:23;8.50;;;4.60;;
69305;SDS011;56427;51.580;4.656;2023-08-06T05:37:52;10.10;;;5.20;;
69305;SDS011;56427;51.580;4.656;2023-08-06T05:40:18;12.60;;;5.80;;
69305;SDS011;56427;51.580;4.656;2023-08-06T05:42:43;10.93;;;6.40;;
69305;SDS011;56427;51.580;4.656;2023-08-06T05:45:09;10.53;;;5.57;;
69305;SDS011;56427;51.580;4.656;2023-08-06T05:47:35;9.82;;;5.97;;
69305;SDS011;56427;51.580;4.656;2023-08-06T05:50:00;12.83;;;6.50;;
69305;SDS011;56427;51.580;4.656;2023-08-06T05:52:26;11.90;;;6.30;;
69305;SDS011;56427;51.580;4.656;2023-08-06T05:54:52;13.52;;;6.47;;
69305;SDS011;56427;51.580;4.656;2023-08-06T05:57:18;12.27;;;6.40;;
69305;SDS011;56427;51.580;4.656;2023-08-06T05:59:43;13.27;;;5.80;;
69305;SDS011;56427;51.580;4.656;2023-08-06T06:02:09;12.70;;;5.60;;
69305;SDS011;56427;51.580;4.656;2023-08-06T06:04:35;12.90;;;6.65;;
69305;SDS011;56427;51.580;4.656;2023-08-06T06:07:00;18.87;;;6.70;;
69305;SDS011;56427;51.580;4.656;2023-08-06T06:09:27;12.02;;;5.75;;
69305;SDS011;56427;51.580;4.656;2023-08-06T06:11:53;16.13;;;6.43;;
69305;SDS011;56427;51.580;4.656;2023-08-06T06:14:18;14.83;;;6.30;;
69305;SDS011;56427;51.580;4.656;2023-08-06T06:16:45;9.77;;;5.60;;
69305;SDS011;56427;51.580;4.656;2023-08-06T06:19:11;14.20;;;6.03;;
69305;SDS011;56427;51.580;4.656;2023-08-06T06:21:38;19.50;;;5.53;;
69305;SDS011;56427;51.580;4.656;2023-08-06T06:24:04;13.70;;;4.60;;
69305;SDS011;56427;51.580;4.656;2023-08-06T06:26:30;13.20;;;4.30;;
69305;SDS011;56427;51.580;4.656;2023-08-06T06:28:56;11.60;;;3.70;;
69305;SDS011;56427;51.580;4.656;2023-08-06T06:31:21;10.82;;;3.95;;
69305;SDS011;56427;51.580;4.656;2023-08-06T06:33:47;11.47;;;3.70;;
69305;SDS011;56427;51.580;4.656;2023-08-06T06:36:12;8.50;;;4.07;;
69305;SDS011;56427;51.580;4.656;2023-08-06T06:38:37;10.93;;;3.40;;
69305;SDS011;56427;51.580;4.656;2023-08-06T06:41:03;8.57;;;3.53;;
69305;SDS011;56427;51.580;4.656;2023-08-06T06:43:31;8.98;;;3.60;;
69305;SDS011;56427;51.580;4.656;2023-08-06T06:45:57;9.27;;;2.90;;
69305;SDS011;56427;51.580;4.656;2023-08-06T06:48:24;9.32;;;3.03;;
69305;SDS011;56427;51.580;4.656;2023-08-06T06:50:53;10.85;;;2.80;;
69305;SDS011;56427;51.580;4.656;2023-08-06T06:53:18;5.70;;;2.50;;
69305;SDS011;56427;51.580;4.656;2023-08-06T06:55:44;6.72;;;2.58;;
69305;SDS011;56427;51.580;4.656;2023-08-06T06:58:09;9.67;;;2.90;;
69305;SDS011;56427;51.580;4.656;2023-08-06T07:00:36;7.68;;;2.60;;
69305;SDS011;56427;51.580;4.656;2023-08-06T07:03:02;8.57;;;2.83;;
69305;SDS011;56427;51.580;4.656;2023-08-06T07:05:28;8.13;;;2.88;;
69305;SDS011;56427;51.580;4.656;2023-08-06T07:07:54;10.67;;;3.20;;
69305;SDS011;56427;51.580;4.656;2023-08-06T07:10:19;9.18;;;3.00;;
69305;SDS011;56427;51.580;4.656;2023-08-06T07:12:45;7.30;;;2.60;;
69305;SDS011;56427;51.580;4.656;2023-08-06T07:15:11;10.07;;;3.50;;
69305;SDS011;56427;51.580;4.656;2023-08-06T07:17:37;10.38;;;3.47;;
69305;SDS011;56427;51.580;4.656;2023-08-06T07:20:03;9.20;;;3.40;;
69305;SDS011;56427;51.580;4.656;2023-08-06T07:22:29;7.00;;;3.17;;
69305;SDS011;56427;51.580;4.656;2023-08-06T07:24:55;8.70;;;3.13;;
69305;SDS011;56427;51.580;4.656;2023-08-06T07:27:20;10.88;;;2.92;;
69305;SDS011;56427;51.580;4.656;2023-08-06T07:29:46;15.27;;;3.80;;
69305;SDS011;56427;51.580;4.656;2023-08-06T07:32:13;10.07;;;3.10;;
69305;SDS011;56427;51.580;4.656;2023-08-06T07:34:39;6.13;;;2.47;;
69305;SDS011;56427;51.580;4.656;2023-08-06T07:37:05;8.30;;;2.20;;
69305;SDS011;56427;51.580;4.656;2023-08-06T07:39:31;13.20;;;2.93;;
69305;SDS011;56427;51.580;4.656;2023-08-06T07:41:56;11.77;;;2.25;;
69305;SDS011;56427;51.580;4.656;2023-08-06T07:44:22;7.50;;;2.27;;
69305;SDS011;56427;51.580;4.656;2023-08-06T07:46:49;9.48;;;2.45;;
69305;SDS011;56427;51.580;4.656;2023-08-06T07:49:14;9.13;;;2.60;;
69305;SDS011;56427;51.580;4.656;2023-08-06T07:51:40;7.93;;;1.80;;
69305;SDS011;56427;51.580;4.656;2023-08-06T07:54:05;6.37;;;2.50;;
69305;SDS011;56427;51.580;4.656;2023-08-06T07:56:31;10.40;;;2.22;;
69305;SDS011;56427;51.580;4.656;2023-08-06T07:58:56;10.27;;;1.90;;
69305;SDS011;56427;51.580;4.656;2023-08-06T08:01:22;8.73;;;2.40;;
69305;SDS011;56427;51.580;4.656;2023-08-06T08:03:47;8.98;;;2.17;;
69305;SDS011;56427;51.580;4.656;2023-08-06T08:06:12;8.80;;;2.10;;
69305;SDS011;56427;51.580;4.656;2023-08-06T08:08:38;3.80;;;1.50;;
69305;SDS011;56427;51.580;4.656;2023-08-06T08:11:04;8.90;;;2.05;;
69305;SDS011;56427;51.580;4.656;2023-08-06T08:13:30;10.37;;;1.60;;
69305;SDS011;56427;51.580;4.656;2023-08-06T08:15:57;7.55;;;1.30;;
69305;SDS011;56427;51.580;4.656;2023-08-06T08:18:23;12.13;;;1.73;;
69305;SDS011;56427;51.580;4.656;2023-08-06T08:20:49;16.43;;;1.97;;
69305;SDS011;56427;51.580;4.656;2023-08-06T08:23:14;8.93;;;1.63;;
69305;SDS011;56427;51.580;4.656;2023-08-06T08:25:40;7.47;;;1.27;;
69305;SDS011;56427;51.580;4.656;2023-08-06T08:28:06;10.27;;;1.67;;
69305;SDS011;56427;51.580;4.656;2023-08-06T08:30:32;13.68;;;1.90;;
69305;SDS011;56427;51.580;4.656;2023-08-06T08:32:57;8.10;;;1.53;;
69305;SDS011;56427;51.580;4.656;2023-08-06T08:35:23;14.30;;;1.58;;
69305;SDS011;56427;51.580;4.656;2023-08-06T08:37:49;13.50;;;1.87;;
69305;SDS011;56427;51.580;4.656;2023-08-06T08:40:15;12.57;;;1.85;;
69305;SDS011;56427;51.580;4.656;2023-08-06T08:42:41;12.80;;;1.53;;
69305;SDS011;56427;51.580;4.656;2023-08-06T08:45:14;9.90;;;1.70;;
69305;SDS011;56427;51.580;4.656;2023-08-06T08:47:41;13.55;;;1.88;;
69305;SDS011;56427;51.580;4.656;2023-08-06T08:50:08;8.02;;;1.45;;
69305;SDS011;56427;51.580;4.656;2023-08-06T08:52:39;8.55;;;1.52;;
69305;SDS011;56427;51.580;4.656;2023-08-06T08:55:06;7.80;;;1.42;;
69305;SDS011;56427;51.580;4.656;2023-08-06T08:57:32;11.90;;;1.70;;
69305;SDS011;56427;51.580;4.656;2023-08-06T08:59:57;9.20;;;1.50;;
69305;SDS011;56427;51.580;4.656;2023-08-06T09:02:23;7.60;;;1.67;;
69305;SDS011;56427;51.580;4.656;2023-08-06T09:04:54;11.02;;;1.55;;
69305;SDS011;56427;51.580;4.656;2023-08-06T09:07:24;10.67;;;1.30;;
69305;SDS011;56427;51.580;4.656;2023-08-06T09:09:51;8.70;;;1.50;;
69305;SDS011;56427;51.580;4.656;2023-08-06T09:12:19;8.45;;;1.48;;
69305;SDS011;56427;51.580;4.656;2023-08-06T09:14:46;8.80;;;1.30;;
69305;SDS011;56427;51.580;4.656;2023-08-06T09:17:15;8.55;;;1.50;;
69305;SDS011;56427;51.580;4.656;2023-08-06T09:19:44;7.23;;;1.43;;
69305;SDS011;56427;51.580;4.656;2023-08-06T09:22:12;5.28;;;1.40;;
69305;SDS011;56427;51.580;4.656;2023-08-06T09:24:39;12.30;;;1.63;;
69305;SDS011;56427;51.580;4.656;2023-08-06T09:27:10;8.77;;;1.77;;
69305;SDS011;56427;51.580;4.656;2023-08-06T09:29:42;7.57;;;1.27;;
69305;SDS011;56427;51.580;4.656;2023-08-06T09:32:09;7.57;;;1.40;;
69305;SDS011;56427;51.580;4.656;2023-08-06T09:34:36;9.10;;;1.42;;
69305;SDS011;56427;51.580;4.656;2023-08-06T09:37:04;6.25;;;1.40;;
69305;SDS011;56427;51.580;4.656;2023-08-06T09:39:30;9.00;;;1.60;;
69305;SDS011;56427;51.580;4.656;2023-08-06T09:41:56;7.38;;;1.48;;
69305;SDS011;56427;51.580;4.656;2023-08-06T09:44:24;8.65;;;1.60;;
69305;SDS011;56427;51.580;4.656;2023-08-06T09:46:51;7.20;;;1.50;;
69305;SDS011;56427;51.580;4.656;2023-08-06T09:49:24;7.07;;;1.40;;
69305;SDS011;56427;51.580;4.656;2023-08-06T09:51:52;6.35;;;1.15;;
69305;SDS011;56427;51.580;4.656;2023-08-06T09:54:21;4.97;;;1.20;;
69305;SDS011;56427;51.580;4.656;2023-08-06T09:56:50;4.60;;;1.20;;
69305;SDS011;56427;51.580;4.656;2023-08-06T09:59:16;5.33;;;1.10;;
69305;SDS011;56427;51.580;4.656;2023-08-06T10:01:43;4.28;;;1.13;;
69305;SDS011;56427;51.580;4.656;2023-08-06T10:04:08;5.80;;;1.07;;
69305;SDS011;56427;51.580;4.656;2023-08-06T10:06:35;6.20;;;1.17;;
69305;SDS011;56427;51.580;4.656;2023-08-06T10:09:01;3.33;;;0.93;;
69305;SDS011;56427;51.580;4.656;2023-08-06T10:11:27;5.03;;;1.17;;
69305;SDS011;56427;51.580;4.656;2023-08-06T10:13:55;6.90;;;1.30;;
69305;SDS011;56427;51.580;4.656;2023-08-06T10:16:41;5.03;;;1.10;;
69305;SDS011;56427;51.580;4.656;2023-08-06T10:19:08;4.63;;;1.15;;
69305;SDS011;56427;51.580;4.656;2023-08-06T10:21:38;4.53;;;1.10;;
69305;SDS011;56427;51.580;4.656;2023-08-06T10:24:03;3.72;;;1.30;;
69305;SDS011;56427;51.580;4.656;2023-08-06T10:26:35;6.47;;;1.40;;
69305;SDS011;56427;51.580;4.656;2023-08-06T10:29:01;5.25;;;1.30;;
69305;SDS011;56427;51.580;4.656;2023-08-06T10:34:23;7.13;;;1.38;;
69305;SDS011;56427;51.580;4.656;2023-08-06T10:36:49;4.60;;;1.53;;
69305;SDS011;56427;51.580;4.656;2023-08-06T10:39:14;4.65;;;1.20;;
69305;SDS011;56427;51.580;4.656;2023-08-06T10:41:43;6.93;;;1.20;;
69305;SDS011;56427;51.580;4.656;2023-08-06T10:44:09;5.20;;;1.27;;
69305;SDS011;56427;51.580;4.656;2023-08-06T10:46:36;6.32;;;1.50;;
69305;SDS011;56427;51.580;4.656;2023-08-06T10:49:06;4.95;;;1.33;;
69305;SDS011;56427;51.580;4.656;2023-08-06T10:51:32;7.13;;;1.50;;
69305;SDS011;56427;51.580;4.656;2023-08-06T10:53:58;5.43;;;1.50;;
69305;SDS011;56427;51.580;4.656;2023-08-06T10:56:23;9.70;;;1.90;;
69305;SDS011;56427;51.580;4.656;2023-08-06T10:58:52;6.50;;;1.50;;
69305;SDS011;56427;51.580;4.656;2023-08-06T11:01:19;6.85;;;1.20;;
69305;SDS011;56427;51.580;4.656;2023-08-06T11:03:47;6.88;;;1.20;;
69305;SDS011;56427;51.580;4.656;2023-08-06T11:06:20;4.53;;;1.23;;
69305;SDS011;56427;51.580;4.656;2023-08-06T11:08:51;4.27;;;1.07;;
69305;SDS011;56427;51.580;4.656;2023-08-06T11:11:18;5.45;;;1.02;;
69305;SDS011;56427;51.580;4.656;2023-08-06T11:13:47;3.35;;;1.00;;
69305;SDS011;56427;51.580;4.656;2023-08-06T11:16:14;5.35;;;1.20;;
69305;SDS011;56427;51.580;4.656;2023-08-06T11:18:41;5.97;;;1.30;;
69305;SDS011;56427;51.580;4.656;2023-08-06T11:21:07;5.28;;;1.20;;
69305;SDS011;56427;51.580;4.656;2023-08-06T11:23:33;5.32;;;1.40;;
69305;SDS011;56427;51.580;4.656;2023-08-06T11:26:00;8.45;;;1.25;;
69305;SDS011;56427;51.580;4.656;2023-08-06T11:28:26;5.43;;;1.27;;
69305;SDS011;56427;51.580;4.656;2023-08-06T11:30:52;6.13;;;0.90;;
69305;SDS011;56427;51.580;4.656;2023-08-06T11:33:24;4.63;;;1.10;;
69305;SDS011;56427;51.580;4.656;2023-08-06T11:35:50;4.53;;;1.20;;
69305;SDS011;56427;51.580;4.656;2023-08-06T11:38:16;6.43;;;1.10;;
69305;SDS011;56427;51.580;4.656;2023-08-06T11:40:43;4.57;;;1.00;;
69305;SDS011;56427;51.580;4.656;2023-08-06T11:43:10;6.25;;;1.10;;
69305;SDS011;56427;51.580;4.656;2023-08-06T11:45:36;4.97;;;1.35;;
69305;SDS011;56427;51.580;4.656;2023-08-06T11:48:02;14.13;;;1.50;;
69305;SDS011;56427;51.580;4.656;2023-08-06T11:50:28;8.73;;;1.47;;
69305;SDS011;56427;51.580;4.656;2023-08-06T11:52:59;7.43;;;1.20;;
69305;SDS011;56427;51.580;4.656;2023-08-06T11:55:26;10.25;;;1.38;;
69305;SDS011;56427;51.580;4.656;2023-08-06T11:57:53;6.93;;;1.00;;
69305;SDS011;56427;51.580;4.656;2023-08-06T12:00:20;7.80;;;1.00;;
69305;SDS011;56427;51.580;4.656;2023-08-06T12:02:48;4.20;;;0.80;;
69305;SDS011;56427;51.580;4.656;2023-08-06T12:05:20;4.97;;;0.90;;
69305;SDS011;56427;51.580;4.656;2023-08-06T12:07:57;4.90;;;1.13;;
69305;SDS011;56427;51.580;4.656;2023-08-06T12:10:24;9.02;;;1.23;;
69305;SDS011;56427;51.580;4.656;2023-08-06T12:12:51;4.60;;;1.10;;
69305;SDS011;56427;51.580;4.656;2023-08-06T12:15:16;6.83;;;1.33;;
69305;SDS011;56427;51.580;4.656;2023-08-06T12:17:42;7.22;;;1.40;;
69305;SDS011;56427;51.580;4.656;2023-08-06T12:20:08;6.50;;;1.50;;
69305;SDS011;56427;51.580;4.656;2023-08-06T12:22:35;7.72;;;1.40;;
69305;SDS011;56427;51.580;4.656;2023-08-06T12:25:04;7.05;;;1.15;;
69305;SDS011;56427;51.580;4.656;2023-08-06T12:27:38;11.10;;;1.65;;
69305;SDS011;56427;51.580;4.656;2023-08-06T12:30:05;9.48;;;1.90;;
69305;SDS011;56427;51.580;4.656;2023-08-06T12:32:31;10.60;;;1.33;;
69305;SDS011;56427;51.580;4.656;2023-08-06T12:34:56;8.85;;;1.63;;
69305;SDS011;56427;51.580;4.656;2023-08-06T12:37:22;8.53;;;1.73;;
69305;SDS011;56427;51.580;4.656;2023-08-06T12:39:49;7.18;;;1.45;;
69305;SDS011;56427;51.580;4.656;2023-08-06T12:42:14;7.13;;;1.50;;
69305;SDS011;56427;51.580;4.656;2023-08-06T12:44:40;6.07;;;1.97;;
69305;SDS011;56427;51.580;4.656;2023-08-06T12:47:06;8.73;;;1.63;;
69305;SDS011;56427;51.580;4.656;2023-08-06T12:49:32;6.47;;;1.40;;
69305;SDS011;56427;51.580;4.656;2023-08-06T12:51:58;8.40;;;1.35;;
69305;SDS011;56427;51.580;4.656;2023-08-06T12:54:25;4.88;;;1.15;;
69305;SDS011;56427;51.580;4.656;2023-08-06T12:56:51;6.43;;;1.30;;
69305;SDS011;56427;51.580;4.656;2023-08-06T12:59:17;8.45;;;1.35;;
69305;SDS011;56427;51.580;4.656;2023-08-06T13:01:43;6.45;;;1.60;;
69305;SDS011;56427;51.580;4.656;2023-08-06T13:04:09;7.03;;;1.50;;
69305;SDS011;56427;51.580;4.656;2023-08-06T13:06:35;11.30;;;1.70;;
69305;SDS011;56427;51.580;4.656;2023-08-06T13:09:08;8.10;;;1.50;;
69305;SDS011;56427;51.580;4.656;2023-08-06T13:11:34;7.35;;;1.40;;
69305;SDS011;56427;51.580;4.656;2023-08-06T13:14:05;5.60;;;1.25;;
69305;SDS011;56427;51.580;4.656;2023-08-06T13:16:32;5.05;;;1.10;;
69305;SDS011;56427;51.580;4.656;2023-08-06T13:18:58;6.87;;;1.50;;
69305;SDS011;56427;51.580;4.656;2023-08-06T13:21:23;6.22;;;1.42;;
69305;SDS011;56427;51.580;4.656;2023-08-06T13:23:49;8.23;;;1.33;;
69305;SDS011;56427;51.580;4.656;2023-08-06T13:26:14;7.80;;;1.40;;
69305;SDS011;56427;51.580;4.656;2023-08-06T13:28:43;5.70;;;1.17;;
69305;SDS011;56427;51.580;4.656;2023-08-06T13:31:09;5.93;;;1.13;;
69305;SDS011;56427;51.580;4.656;2023-08-06T13:33:34;6.47;;;1.40;;
69305;SDS011;56427;51.580;4.656;2023-08-06T13:36:00;5.27;;;1.40;;
69305;SDS011;56427;51.580;4.656;2023-08-06T13:38:25;6.70;;;1.20;;
69305;SDS011;56427;51.580;4.656;2023-08-06T13:40:50;5.90;;;1.03;;
69305;SDS011;56427;51.580;4.656;2023-08-06T13:43:16;3.83;;;0.97;;
69305;SDS011;56427;51.580;4.656;2023-08-06T13:45:44;8.45;;;1.17;;
69305;SDS011;56427;51.580;4.656;2023-08-06T13:48:09;9.40;;;1.70;;
69305;SDS011;56427;51.580;4.656;2023-08-06T13:50:35;7.65;;;1.60;;
69305;SDS011;56427;51.580;4.656;2023-08-06T13:53:02;8.17;;;1.70;;
69305;SDS011;56427;51.580;4.656;2023-08-06T13:55:28;6.70;;;1.90;;
69305;SDS011;56427;51.580;4.656;2023-08-06T13:57:53;5.03;;;1.43;;
69305;SDS011;56427;51.580;4.656;2023-08-06T14:00:19;11.10;;;1.90;;
69305;SDS011;56427;51.580;4.656;2023-08-06T14:02:45;9.20;;;1.40;;
69305;SDS011;56427;51.580;4.656;2023-08-06T14:05:10;12.70;;;1.93;;
69305;SDS011;56427;51.580;4.656;2023-08-06T14:07:36;11.27;;;2.50;;
69305;SDS011;56427;51.580;4.656;2023-08-06T14:10:02;8.80;;;1.97;;
69305;SDS011;56427;51.580;4.656;2023-08-06T14:12:27;8.18;;;1.50;;
69305;SDS011;56427;51.580;4.656;2023-08-06T14:14:53;10.90;;;1.83;;
69305;SDS011;56427;51.580;4.656;2023-08-06T14:17:18;9.37;;;1.33;;
69305;SDS011;56427;51.580;4.656;2023-08-06T14:19:43;7.73;;;1.47;;
69305;SDS011;56427;51.580;4.656;2023-08-06T14:22:09;10.85;;;1.73;;
69305;SDS011;56427;51.580;4.656;2023-08-06T14:24:34;6.00;;;1.00;;
69305;SDS011;56427;51.580;4.656;2023-08-06T14:27:00;5.00;;;1.20;;
69305;SDS011;56427;51.580;4.656;2023-08-06T14:29:25;7.25;;;1.20;;
69305;SDS011;56427;51.580;4.656;2023-08-06T14:31:51;6.47;;;1.17;;
69305;SDS011;56427;51.580;4.656;2023-08-06T14:34:16;7.13;;;1.20;;
69305;SDS011;56427;51.580;4.656;2023-08-06T14:36:42;7.88;;;0.98;;
69305;SDS011;56427;51.580;4.656;2023-08-06T14:39:08;8.17;;;1.40;;
69305;SDS011;56427;51.580;4.656;2023-08-06T14:41:33;7.73;;;1.30;;
69305;SDS011;56427;51.580;4.656;2023-08-06T14:43:58;5.65;;;1.38;;
69305;SDS011;56427;51.580;4.656;2023-08-06T14:46:24;9.57;;;1.33;;